sensor_id;sensor_type;location;lat;lon;timestamp;P1;durP1;ratioP1;P2;durP2;ratioP2
61638;SDS011;47544;52.484;4.658;2023-08-08T00:00:08;3.63;;;1.23;;
61638;SDS011;47544;52.484;4.658;2023-08-08T00:00:20;3.80;;;1.30;;
61638;SDS011;47544;52.484;4.658;2023-08-08T00:00:31;4.05;;;1.40;;
61638;SDS011;47544;52.484;4.658;2023-08-08T00:00:42;4.63;;;1.50;;
61638;SDS011;47544;52.484;4.658;2023-08-08T00:00:53;5.35;;;1.50;;
61638;SDS011;47544;52.484;4.658;2023-08-08T00:01:05;5.18;;;1.45;;
61638;SDS011;47544;52.484;4.658;2023-08-08T00:01:16;3.70;;;1.45;;
61638;SDS011;47544;52.484;4.658;2023-08-08T00:01:27;3.65;;;1.52;;
61638;SDS011;47544;52.484;4.658;2023-08-08T00:01:38;4.18;;;1.50;;
61638;SDS011;47544;52.484;4.658;2023-08-08T00:01:53;5.28;;;1.40;;
61638;SDS011;47544;52.484;4.658;2023-08-08T00:02:04;6.68;;;1.33;;
61638;SDS011;47544;52.484;4.658;2023-08-08T00:02:16;6.45;;;1.58;;
61638;SDS011;47544;52.484;4.658;2023-08-08T00:02:27;4.80;;;1.50;;
61638;SDS011;47544;52.484;4.658;2023-08-08T00:02:38;3.67;;;1.42;;
61638;SDS011;47544;52.484;4.658;2023-08-08T00:02:49;4.70;;;1.42;;
61638;SDS011;47544;52.484;4.658;2023-08-08T00:03:00;4.60;;;1.50;;
61638;SDS011;47544;52.484;4.658;2023-08-08T00:03:11;4.00;;;1.40;;
61638;SDS011;47544;52.484;4.658;2023-08-08T00:03:23;3.33;;;1.30;;
61638;SDS011;47544;52.484;4.658;2023-08-08T00:03:34;3.75;;;1.38;;
61638;SDS011;47544;52.484;4.658;2023-08-08T00:03:45;4.53;;;1.40;;
61638;SDS011;47544;52.484;4.658;2023-08-08T00:03:56;4.30;;;1.50;;
61638;SDS011;47544;52.484;4.658;2023-08-08T00:04:07;5.18;;;1.52;;
61638;SDS011;47544;52.484;4.658;2023-08-08T00:04:18;5.20;;;1.67;;
61638;SDS011;47544;52.484;4.658;2023-08-08T00:04:29;5.28;;;1.63;;
61638;SDS011;47544;52.484;4.658;2023-08-08T00:04:40;4.22;;;1.50;;
61638;SDS011;47544;52.484;4.658;2023-08-08T00:04:51;4.32;;;1.40;;
61638;SDS011;47544;52.484;4.658;2023-08-08T00:05:02;4.18;;;1.40;;
61638;SDS011;47544;52.484;4.658;2023-08-08T00:05:14;4.18;;;1.55;;
61638;SDS011;47544;52.484;4.658;2023-08-08T00:05:25;3.88;;;1.58;;
61638;SDS011;47544;52.484;4.658;2023-08-08T00:05:36;5.20;;;1.48;;
61638;SDS011;47544;52.484;4.658;2023-08-08T00:05:47;5.32;;;1.15;;
61638;SDS011;47544;52.484;4.658;2023-08-08T00:05:58;4.95;;;1.02;;
61638;SDS011;47544;52.484;4.658;2023-08-08T00:06:09;4.40;;;1.10;;
61638;SDS011;47544;52.484;4.658;2023-08-08T00:06:20;3.65;;;1.33;;
61638;SDS011;47544;52.484;4.658;2023-08-08T00:06:31;3.83;;;1.52;;
61638;SDS011;47544;52.484;4.658;2023-08-08T00:06:43;4.68;;;1.85;;
61638;SDS011;47544;52.484;4.658;2023-08-08T00:06:54;6.05;;;1.80;;
61638;SDS011;47544;52.484;4.658;2023-08-08T00:07:05;5.68;;;1.60;;
61638;SDS011;47544;52.484;4.658;2023-08-08T00:07:16;4.57;;;1.17;;
61638;SDS011;47544;52.484;4.658;2023-08-08T00:07:27;3.58;;;1.13;;
61638;SDS011;47544;52.484;4.658;2023-08-08T00:07:40;3.70;;;1.23;;
61638;SDS011;47544;52.484;4.658;2023-08-08T00:07:51;3.42;;;1.40;;
61638;SDS011;47544;52.484;4.658;2023-08-08T00:08:02;3.97;;;1.45;;
61638;SDS011;47544;52.484;4.658;2023-08-08T00:08:13;4.80;;;1.40;;
61638;SDS011;47544;52.484;4.658;2023-08-08T00:08:24;4.95;;;1.40;;
61638;SDS011;47544;52.484;4.658;2023-08-08T00:08:35;4.10;;;1.42;;
61638;SDS011;47544;52.484;4.658;2023-08-08T00:08:47;4.00;;;1.42;;
61638;SDS011;47544;52.484;4.658;2023-08-08T00:08:58;3.70;;;1.30;;
61638;SDS011;47544;52.484;4.658;2023-08-08T00:09:09;3.78;;;1.30;;
61638;SDS011;47544;52.484;4.658;2023-08-08T00:09:20;2.88;;;1.15;;
61638;SDS011;47544;52.484;4.658;2023-08-08T00:09:31;2.20;;;1.10;;
61638;SDS011;47544;52.484;4.658;2023-08-08T00:09:42;2.55;;;0.98;;
61638;SDS011;47544;52.484;4.658;2023-08-08T00:09:53;3.20;;;1.00;;
61638;SDS011;47544;52.484;4.658;2023-08-08T00:10:04;3.03;;;0.93;;
61638;SDS011;47544;52.484;4.658;2023-08-08T00:10:17;2.53;;;1.00;;
61638;SDS011;47544;52.484;4.658;2023-08-08T00:10:27;3.05;;;1.17;;
61638;SDS011;47544;52.484;4.658;2023-08-08T00:10:38;4.22;;;1.40;;
61638;SDS011;47544;52.484;4.658;2023-08-08T00:10:52;4.18;;;1.40;;
61638;SDS011;47544;52.484;4.658;2023-08-08T00:11:03;4.22;;;1.45;;
61638;SDS011;47544;52.484;4.658;2023-08-08T00:11:14;3.05;;;1.30;;
61638;SDS011;47544;52.484;4.658;2023-08-08T00:11:25;4.32;;;1.33;;
61638;SDS011;47544;52.484;4.658;2023-08-08T00:11:36;5.03;;;1.50;;
61638;SDS011;47544;52.484;4.658;2023-08-08T00:11:47;4.72;;;1.42;;
61638;SDS011;47544;52.484;4.658;2023-08-08T00:11:59;3.88;;;1.38;;
61638;SDS011;47544;52.484;4.658;2023-08-08T00:12:11;3.85;;;1.33;;
61638;SDS011;47544;52.484;4.658;2023-08-08T00:12:22;5.00;;;1.50;;
61638;SDS011;47544;52.484;4.658;2023-08-08T00:12:33;5.25;;;1.48;;
61638;SDS011;47544;52.484;4.658;2023-08-08T00:12:44;5.07;;;1.45;;
61638;SDS011;47544;52.484;4.658;2023-08-08T00:12:55;3.10;;;1.30;;
61638;SDS011;47544;52.484;4.658;2023-08-08T00:13:06;3.45;;;1.20;;
61638;SDS011;47544;52.484;4.658;2023-08-08T00:13:17;4.03;;;1.17;;
61638;SDS011;47544;52.484;4.658;2023-08-08T00:13:28;4.30;;;1.13;;
61638;SDS011;47544;52.484;4.658;2023-08-08T00:13:39;5.53;;;1.30;;
61638;SDS011;47544;52.484;4.658;2023-08-08T00:13:51;4.85;;;1.48;;
61638;SDS011;47544;52.484;4.658;2023-08-08T00:14:02;5.78;;;1.50;;
61638;SDS011;47544;52.484;4.658;2023-08-08T00:14:13;5.03;;;1.42;;
61638;SDS011;47544;52.484;4.658;2023-08-08T00:14:24;4.53;;;1.20;;
61638;SDS011;47544;52.484;4.658;2023-08-08T00:14:35;3.50;;;1.20;;
61638;SDS011;47544;52.484;4.658;2023-08-08T00:14:46;4.00;;;1.20;;
61638;SDS011;47544;52.484;4.658;2023-08-08T00:14:58;4.28;;;1.20;;
61638;SDS011;47544;52.484;4.658;2023-08-08T00:15:09;3.50;;;1.10;;
61638;SDS011;47544;52.484;4.658;2023-08-08T00:15:22;2.60;;;0.98;;
61638;SDS011;47544;52.484;4.658;2023-08-08T00:15:33;3.50;;;1.02;;
61638;SDS011;47544;52.484;4.658;2023-08-08T00:15:44;4.15;;;1.30;;
61638;SDS011;47544;52.484;4.658;2023-08-08T00:15:55;4.65;;;1.40;;
61638;SDS011;47544;52.484;4.658;2023-08-08T00:16:06;5.38;;;1.50;;
61638;SDS011;47544;52.484;4.658;2023-08-08T00:16:17;4.40;;;1.45;;
61638;SDS011;47544;52.484;4.658;2023-08-08T00:16:28;4.30;;;1.30;;
61638;SDS011;47544;52.484;4.658;2023-08-08T00:16:39;4.47;;;1.27;;
61638;SDS011;47544;52.484;4.658;2023-08-08T00:16:50;5.43;;;1.27;;
61638;SDS011;47544;52.484;4.658;2023-08-08T00:17:01;5.00;;;1.40;;
61638;SDS011;47544;52.484;4.658;2023-08-08T00:17:13;4.57;;;1.40;;
61638;SDS011;47544;52.484;4.658;2023-08-08T00:17:24;5.13;;;1.50;;
61638;SDS011;47544;52.484;4.658;2023-08-08T00:17:35;5.32;;;1.23;;
61638;SDS011;47544;52.484;4.658;2023-08-08T00:17:46;4.45;;;1.10;;
61638;SDS011;47544;52.484;4.658;2023-08-08T00:17:57;4.13;;;1.00;;
61638;SDS011;47544;52.484;4.658;2023-08-08T00:18:08;4.75;;;1.17;;
61638;SDS011;47544;52.484;4.658;2023-08-08T00:18:19;5.05;;;1.67;;
61638;SDS011;47544;52.484;4.658;2023-08-08T00:18:30;5.10;;;1.85;;
61638;SDS011;47544;52.484;4.658;2023-08-08T00:18:41;5.27;;;1.77;;
61638;SDS011;47544;52.484;4.658;2023-08-08T00:18:53;4.60;;;1.50;;
61638;SDS011;47544;52.484;4.658;2023-08-08T00:19:04;4.43;;;1.42;;
61638;SDS011;47544;52.484;4.658;2023-08-08T00:19:15;3.63;;;1.37;;
61638;SDS011;47544;52.484;4.658;2023-08-08T00:19:26;3.22;;;1.15;;
61638;SDS011;47544;52.484;4.658;2023-08-08T00:19:37;2.38;;;1.00;;
61638;SDS011;47544;52.484;4.658;2023-08-08T00:19:48;2.90;;;0.90;;
61638;SDS011;47544;52.484;4.658;2023-08-08T00:19:59;3.88;;;0.95;;
61638;SDS011;47544;52.484;4.658;2023-08-08T00:20:10;4.50;;;1.23;;
61638;SDS011;47544;52.484;4.658;2023-08-08T00:20:21;4.68;;;1.30;;
61638;SDS011;47544;52.484;4.658;2023-08-08T00:20:33;4.18;;;1.27;;
61638;SDS011;47544;52.484;4.658;2023-08-08T00:20:45;4.10;;;1.20;;
61638;SDS011;47544;52.484;4.658;2023-08-08T00:20:56;3.58;;;1.30;;
61638;SDS011;47544;52.484;4.658;2023-08-08T00:21:07;3.95;;;1.40;;
61638;SDS011;47544;52.484;4.658;2023-08-08T00:21:17;3.35;;;1.23;;
61638;SDS011;47544;52.484;4.658;2023-08-08T00:21:30;3.63;;;1.20;;
61638;SDS011;47544;52.484;4.658;2023-08-08T00:21:42;3.90;;;1.27;;
61638;SDS011;47544;52.484;4.658;2023-08-08T00:21:53;3.80;;;1.20;;
61638;SDS011;47544;52.484;4.658;2023-08-08T00:22:04;3.60;;;1.30;;
61638;SDS011;47544;52.484;4.658;2023-08-08T00:22:15;3.85;;;1.35;;
61638;SDS011;47544;52.484;4.658;2023-08-08T00:22:26;4.90;;;1.40;;
61638;SDS011;47544;52.484;4.658;2023-08-08T00:22:37;5.03;;;1.48;;
61638;SDS011;47544;52.484;4.658;2023-08-08T00:22:49;5.63;;;1.58;;
61638;SDS011;47544;52.484;4.658;2023-08-08T00:23:00;4.82;;;1.40;;
61638;SDS011;47544;52.484;4.658;2023-08-08T00:23:11;4.30;;;1.15;;
61638;SDS011;47544;52.484;4.658;2023-08-08T00:23:22;3.42;;;1.00;;
61638;SDS011;47544;52.484;4.658;2023-08-08T00:23:33;3.17;;;1.08;;
61638;SDS011;47544;52.484;4.658;2023-08-08T00:23:44;3.50;;;1.20;;
61638;SDS011;47544;52.484;4.658;2023-08-08T00:23:55;4.63;;;1.52;;
61638;SDS011;47544;52.484;4.658;2023-08-08T00:24:06;4.88;;;1.63;;
61638;SDS011;47544;52.484;4.658;2023-08-08T00:24:17;4.03;;;1.58;;
61638;SDS011;47544;52.484;4.658;2023-08-08T00:24:28;3.00;;;1.23;;
61638;SDS011;47544;52.484;4.658;2023-08-08T00:24:38;3.10;;;1.27;;
61638;SDS011;47544;52.484;4.658;2023-08-08T00:24:50;4.03;;;1.45;;
61638;SDS011;47544;52.484;4.658;2023-08-08T00:25:01;4.38;;;1.42;;
61638;SDS011;47544;52.484;4.658;2023-08-08T00:25:12;4.57;;;1.30;;
61638;SDS011;47544;52.484;4.658;2023-08-08T00:25:23;4.78;;;1.20;;
61638;SDS011;47544;52.484;4.658;2023-08-08T00:25:35;4.93;;;1.30;;
61638;SDS011;47544;52.484;4.658;2023-08-08T00:25:46;4.45;;;1.20;;
61638;SDS011;47544;52.484;4.658;2023-08-08T00:26:00;4.97;;;1.38;;
61638;SDS011;47544;52.484;4.658;2023-08-08T00:26:11;5.95;;;1.40;;
61638;SDS011;47544;52.484;4.658;2023-08-08T00:26:22;6.28;;;1.50;;
61638;SDS011;47544;52.484;4.658;2023-08-08T00:26:34;5.93;;;1.60;;
61638;SDS011;47544;52.484;4.658;2023-08-08T00:26:45;5.72;;;1.63;;
61638;SDS011;47544;52.484;4.658;2023-08-08T00:26:56;5.35;;;1.63;;
61638;SDS011;47544;52.484;4.658;2023-08-08T00:27:07;5.40;;;1.50;;
61638;SDS011;47544;52.484;4.658;2023-08-08T00:27:18;4.97;;;1.50;;
61638;SDS011;47544;52.484;4.658;2023-08-08T00:27:29;4.88;;;1.48;;
61638;SDS011;47544;52.484;4.658;2023-08-08T00:27:40;5.07;;;1.50;;
61638;SDS011;47544;52.484;4.658;2023-08-08T00:27:54;5.65;;;1.52;;
61638;SDS011;47544;52.484;4.658;2023-08-08T00:28:05;5.38;;;1.65;;
61638;SDS011;47544;52.484;4.658;2023-08-08T00:28:16;5.35;;;1.60;;
61638;SDS011;47544;52.484;4.658;2023-08-08T00:28:28;4.32;;;1.30;;
61638;SDS011;47544;52.484;4.658;2023-08-08T00:28:39;5.88;;;1.40;;
61638;SDS011;47544;52.484;4.658;2023-08-08T00:28:50;5.93;;;1.40;;
61638;SDS011;47544;52.484;4.658;2023-08-08T00:29:01;5.90;;;1.50;;
61638;SDS011;47544;52.484;4.658;2023-08-08T00:29:12;5.07;;;1.50;;
61638;SDS011;47544;52.484;4.658;2023-08-08T00:29:23;6.25;;;1.48;;
61638;SDS011;47544;52.484;4.658;2023-08-08T00:29:34;5.85;;;1.40;;
61638;SDS011;47544;52.484;4.658;2023-08-08T00:29:45;5.22;;;1.30;;
61638;SDS011;47544;52.484;4.658;2023-08-08T00:29:56;5.07;;;1.42;;
61638;SDS011;47544;52.484;4.658;2023-08-08T00:30:09;5.22;;;1.52;;
61638;SDS011;47544;52.484;4.658;2023-08-08T00:30:20;5.35;;;1.70;;
61638;SDS011;47544;52.484;4.658;2023-08-08T00:30:32;4.43;;;1.42;;
61638;SDS011;47544;52.484;4.658;2023-08-08T00:30:43;3.67;;;1.48;;
61638;SDS011;47544;52.484;4.658;2023-08-08T00:30:55;3.15;;;1.40;;
61638;SDS011;47544;52.484;4.658;2023-08-08T00:31:06;4.82;;;1.70;;
61638;SDS011;47544;52.484;4.658;2023-08-08T00:31:18;5.20;;;1.58;;
61638;SDS011;47544;52.484;4.658;2023-08-08T00:31:30;5.35;;;1.40;;
61638;SDS011;47544;52.484;4.658;2023-08-08T00:31:41;5.10;;;1.35;;
61638;SDS011;47544;52.484;4.658;2023-08-08T00:31:52;5.55;;;1.33;;
61638;SDS011;47544;52.484;4.658;2023-08-08T00:32:03;5.10;;;1.35;;
61638;SDS011;47544;52.484;4.658;2023-08-08T00:32:17;5.70;;;1.48;;
61638;SDS011;47544;52.484;4.658;2023-08-08T00:32:29;6.07;;;1.60;;
61638;SDS011;47544;52.484;4.658;2023-08-08T00:32:40;6.05;;;1.60;;
61638;SDS011;47544;52.484;4.658;2023-08-08T00:32:51;5.75;;;1.40;;
61638;SDS011;47544;52.484;4.658;2023-08-08T00:33:02;7.13;;;1.48;;
61638;SDS011;47544;52.484;4.658;2023-08-08T00:33:13;7.38;;;1.55;;
61638;SDS011;47544;52.484;4.658;2023-08-08T00:33:24;6.65;;;1.63;;
61638;SDS011;47544;52.484;4.658;2023-08-08T00:33:35;4.90;;;1.60;;
61638;SDS011;47544;52.484;4.658;2023-08-08T00:33:46;5.40;;;1.65;;
61638;SDS011;47544;52.484;4.658;2023-08-08T00:33:57;5.50;;;1.50;;
61638;SDS011;47544;52.484;4.658;2023-08-08T00:34:09;7.47;;;1.35;;
61638;SDS011;47544;52.484;4.658;2023-08-08T00:34:20;5.38;;;1.13;;
61638;SDS011;47544;52.484;4.658;2023-08-08T00:34:31;5.22;;;1.23;;
61638;SDS011;47544;52.484;4.658;2023-08-08T00:34:42;4.75;;;1.25;;
61638;SDS011;47544;52.484;4.658;2023-08-08T00:34:53;5.35;;;1.58;;
61638;SDS011;47544;52.484;4.658;2023-08-08T00:35:04;4.88;;;1.50;;
61638;SDS011;47544;52.484;4.658;2023-08-08T00:35:15;4.00;;;1.40;;
61638;SDS011;47544;52.484;4.658;2023-08-08T00:35:26;3.25;;;1.30;;
61638;SDS011;47544;52.484;4.658;2023-08-08T00:35:38;4.60;;;1.58;;
61638;SDS011;47544;52.484;4.658;2023-08-08T00:35:49;5.13;;;1.90;;
61638;SDS011;47544;52.484;4.658;2023-08-08T00:36:00;6.03;;;1.85;;
61638;SDS011;47544;52.484;4.658;2023-08-08T00:36:11;6.03;;;1.65;;
61638;SDS011;47544;52.484;4.658;2023-08-08T00:36:22;5.30;;;1.40;;
61638;SDS011;47544;52.484;4.658;2023-08-08T00:36:33;3.97;;;1.25;;
61638;SDS011;47544;52.484;4.658;2023-08-08T00:36:44;4.35;;;1.30;;
61638;SDS011;47544;52.484;4.658;2023-08-08T00:36:55;4.88;;;1.30;;
61638;SDS011;47544;52.484;4.658;2023-08-08T00:37:07;5.70;;;1.40;;
61638;SDS011;47544;52.484;4.658;2023-08-08T00:37:18;5.43;;;1.50;;
61638;SDS011;47544;52.484;4.658;2023-08-08T00:37:29;5.10;;;1.50;;
61638;SDS011;47544;52.484;4.658;2023-08-08T00:37:40;4.90;;;1.58;;
61638;SDS011;47544;52.484;4.658;2023-08-08T00:37:51;5.35;;;1.50;;
61638;SDS011;47544;52.484;4.658;2023-08-08T00:38:03;5.67;;;1.50;;
61638;SDS011;47544;52.484;4.658;2023-08-08T00:38:14;5.10;;;1.65;;
61638;SDS011;47544;52.484;4.658;2023-08-08T00:38:27;5.25;;;1.60;;
61638;SDS011;47544;52.484;4.658;2023-08-08T00:38:38;6.03;;;1.65;;
61638;SDS011;47544;52.484;4.658;2023-08-08T00:38:49;6.68;;;1.50;;
61638;SDS011;47544;52.484;4.658;2023-08-08T00:39:00;6.28;;;1.60;;
61638;SDS011;47544;52.484;4.658;2023-08-08T00:39:11;5.90;;;1.60;;
61638;SDS011;47544;52.484;4.658;2023-08-08T00:39:22;5.10;;;1.67;;
61638;SDS011;47544;52.484;4.658;2023-08-08T00:39:33;6.50;;;1.70;;
61638;SDS011;47544;52.484;4.658;2023-08-08T00:39:44;6.07;;;1.60;;
61638;SDS011;47544;52.484;4.658;2023-08-08T00:39:56;5.20;;;1.50;;
61638;SDS011;47544;52.484;4.658;2023-08-08T00:40:08;5.25;;;1.42;;
61638;SDS011;47544;52.484;4.658;2023-08-08T00:40:20;5.25;;;1.48;;
61638;SDS011;47544;52.484;4.658;2023-08-08T00:40:31;3.85;;;1.30;;
61638;SDS011;47544;52.484;4.658;2023-08-08T00:40:42;5.40;;;1.40;;
61638;SDS011;47544;52.484;4.658;2023-08-08T00:40:53;6.72;;;1.55;;
61638;SDS011;47544;52.484;4.658;2023-08-08T00:41:04;7.50;;;1.70;;
61638;SDS011;47544;52.484;4.658;2023-08-08T00:41:15;6.63;;;1.50;;
61638;SDS011;47544;52.484;4.658;2023-08-08T00:41:26;5.75;;;1.35;;
61638;SDS011;47544;52.484;4.658;2023-08-08T00:41:37;5.75;;;1.45;;
61638;SDS011;47544;52.484;4.658;2023-08-08T00:41:48;5.78;;;1.60;;
61638;SDS011;47544;52.484;4.658;2023-08-08T00:41:59;4.47;;;1.42;;
61638;SDS011;47544;52.484;4.658;2023-08-08T00:42:10;4.95;;;1.50;;
61638;SDS011;47544;52.484;4.658;2023-08-08T00:42:21;5.43;;;1.67;;
61638;SDS011;47544;52.484;4.658;2023-08-08T00:42:33;5.90;;;1.70;;
61638;SDS011;47544;52.484;4.658;2023-08-08T00:42:44;5.03;;;1.70;;
61638;SDS011;47544;52.484;4.658;2023-08-08T00:42:55;5.18;;;1.65;;
61638;SDS011;47544;52.484;4.658;2023-08-08T00:43:06;4.93;;;1.80;;
61638;SDS011;47544;52.484;4.658;2023-08-08T00:43:17;4.72;;;1.77;;
61638;SDS011;47544;52.484;4.658;2023-08-08T00:43:28;4.20;;;1.70;;
61638;SDS011;47544;52.484;4.658;2023-08-08T00:43:39;5.32;;;1.70;;
61638;SDS011;47544;52.484;4.658;2023-08-08T00:43:50;5.70;;;1.60;;
61638;SDS011;47544;52.484;4.658;2023-08-08T00:44:01;5.25;;;1.55;;
61638;SDS011;47544;52.484;4.658;2023-08-08T00:44:13;4.60;;;1.52;;
61638;SDS011;47544;52.484;4.658;2023-08-08T00:44:24;5.78;;;1.70;;
61638;SDS011;47544;52.484;4.658;2023-08-08T00:44:35;7.30;;;1.90;;
61638;SDS011;47544;52.484;4.658;2023-08-08T00:44:48;7.18;;;1.90;;
61638;SDS011;47544;52.484;4.658;2023-08-08T00:44:59;6.90;;;1.90;;
61638;SDS011;47544;52.484;4.658;2023-08-08T00:45:15;5.95;;;1.73;;
61638;SDS011;47544;52.484;4.658;2023-08-08T00:45:26;5.55;;;1.80;;
61638;SDS011;47544;52.484;4.658;2023-08-08T00:45:38;5.07;;;1.70;;
61638;SDS011;47544;52.484;4.658;2023-08-08T00:45:51;6.03;;;2.00;;
61638;SDS011;47544;52.484;4.658;2023-08-08T00:46:02;6.68;;;2.00;;
61638;SDS011;47544;52.484;4.658;2023-08-08T00:46:13;6.60;;;2.05;;
61638;SDS011;47544;52.484;4.658;2023-08-08T00:46:24;6.07;;;1.77;;
61638;SDS011;47544;52.484;4.658;2023-08-08T00:46:35;6.22;;;1.63;;
61638;SDS011;47544;52.484;4.658;2023-08-08T00:46:46;6.47;;;1.75;;
61638;SDS011;47544;52.484;4.658;2023-08-08T00:46:57;5.22;;;1.77;;
61638;SDS011;47544;52.484;4.658;2023-08-08T00:47:08;4.80;;;1.77;;
61638;SDS011;47544;52.484;4.658;2023-08-08T00:47:19;5.32;;;1.73;;
61638;SDS011;47544;52.484;4.658;2023-08-08T00:47:31;5.15;;;1.58;;
61638;SDS011;47544;52.484;4.658;2023-08-08T00:47:43;4.07;;;1.52;;
61638;SDS011;47544;52.484;4.658;2023-08-08T00:47:55;4.97;;;1.60;;
61638;SDS011;47544;52.484;4.658;2023-08-08T00:48:06;5.88;;;1.70;;
61638;SDS011;47544;52.484;4.658;2023-08-08T00:48:17;6.47;;;1.90;;
61638;SDS011;47544;52.484;4.658;2023-08-08T00:48:30;6.03;;;1.63;;
61638;SDS011;47544;52.484;4.658;2023-08-08T00:48:41;5.25;;;1.50;;
61638;SDS011;47544;52.484;4.658;2023-08-08T00:48:52;4.90;;;1.42;;
61638;SDS011;47544;52.484;4.658;2023-08-08T00:49:05;5.97;;;1.50;;
61638;SDS011;47544;52.484;4.658;2023-08-08T00:49:16;5.57;;;1.50;;
61638;SDS011;47544;52.484;4.658;2023-08-08T00:49:28;4.30;;;1.35;;
61638;SDS011;47544;52.484;4.658;2023-08-08T00:49:39;3.60;;;1.40;;
61638;SDS011;47544;52.484;4.658;2023-08-08T00:49:50;3.10;;;1.40;;
61638;SDS011;47544;52.484;4.658;2023-08-08T00:50:01;3.83;;;1.67;;
61638;SDS011;47544;52.484;4.658;2023-08-08T00:50:13;4.20;;;1.58;;
61638;SDS011;47544;52.484;4.658;2023-08-08T00:50:25;4.70;;;1.38;;
61638;SDS011;47544;52.484;4.658;2023-08-08T00:50:36;4.45;;;1.30;;
61638;SDS011;47544;52.484;4.658;2023-08-08T00:50:47;5.43;;;1.40;;
61638;SDS011;47544;52.484;4.658;2023-08-08T00:50:59;6.00;;;1.67;;
61638;SDS011;47544;52.484;4.658;2023-08-08T00:51:13;5.35;;;1.60;;
61638;SDS011;47544;52.484;4.658;2023-08-08T00:51:24;5.38;;;1.75;;
61638;SDS011;47544;52.484;4.658;2023-08-08T00:51:35;4.85;;;1.70;;
61638;SDS011;47544;52.484;4.658;2023-08-08T00:51:46;4.65;;;1.60;;
61638;SDS011;47544;52.484;4.658;2023-08-08T00:51:58;4.95;;;1.50;;
61638;SDS011;47544;52.484;4.658;2023-08-08T00:52:09;5.05;;;1.50;;
61638;SDS011;47544;52.484;4.658;2023-08-08T00:52:20;5.45;;;1.65;;
61638;SDS011;47544;52.484;4.658;2023-08-08T00:52:31;7.13;;;1.88;;
61638;SDS011;47544;52.484;4.658;2023-08-08T00:52:45;7.22;;;1.60;;
61638;SDS011;47544;52.484;4.658;2023-08-08T00:52:57;5.07;;;1.23;;
61638;SDS011;47544;52.484;4.658;2023-08-08T00:53:08;5.32;;;1.27;;
61638;SDS011;47544;52.484;4.658;2023-08-08T00:53:19;5.55;;;1.33;;
61638;SDS011;47544;52.484;4.658;2023-08-08T00:53:30;4.55;;;1.40;;
61638;SDS011;47544;52.484;4.658;2023-08-08T00:53:42;4.75;;;1.50;;
61638;SDS011;47544;52.484;4.658;2023-08-08T00:53:53;4.32;;;1.38;;
61638;SDS011;47544;52.484;4.658;2023-08-08T00:54:04;4.72;;;1.48;;
61638;SDS011;47544;52.484;4.658;2023-08-08T00:54:15;5.07;;;1.40;;
61638;SDS011;47544;52.484;4.658;2023-08-08T00:54:27;5.47;;;1.50;;
61638;SDS011;47544;52.484;4.658;2023-08-08T00:54:39;6.63;;;1.60;;
61638;SDS011;47544;52.484;4.658;2023-08-08T00:54:51;6.68;;;1.75;;
61638;SDS011;47544;52.484;4.658;2023-08-08T00:55:02;6.80;;;1.58;;
61638;SDS011;47544;52.484;4.658;2023-08-08T00:55:14;4.35;;;1.23;;
61638;SDS011;47544;52.484;4.658;2023-08-08T00:55:28;3.55;;;1.00;;
61638;SDS011;47544;52.484;4.658;2023-08-08T00:55:39;4.00;;;1.20;;
61638;SDS011;47544;52.484;4.658;2023-08-08T00:55:50;4.93;;;1.40;;
61638;SDS011;47544;52.484;4.658;2023-08-08T00:56:01;3.75;;;1.50;;
61638;SDS011;47544;52.484;4.658;2023-08-08T00:56:14;3.67;;;1.45;;
61638;SDS011;47544;52.484;4.658;2023-08-08T00:56:25;4.85;;;1.58;;
61638;SDS011;47544;52.484;4.658;2023-08-08T00:56:36;5.55;;;1.60;;
61638;SDS011;47544;52.484;4.658;2023-08-08T00:56:47;6.88;;;1.60;;
61638;SDS011;47544;52.484;4.658;2023-08-08T00:56:59;6.25;;;1.67;;
61638;SDS011;47544;52.484;4.658;2023-08-08T00:57:10;6.25;;;1.70;;
61638;SDS011;47544;52.484;4.658;2023-08-08T00:57:21;4.88;;;1.63;;
61638;SDS011;47544;52.484;4.658;2023-08-08T00:57:32;4.40;;;1.40;;
61638;SDS011;47544;52.484;4.658;2023-08-08T00:57:43;3.75;;;1.40;;
61638;SDS011;47544;52.484;4.658;2023-08-08T00:57:56;3.85;;;1.50;;
61638;SDS011;47544;52.484;4.658;2023-08-08T00:58:07;5.70;;;1.70;;
61638;SDS011;47544;52.484;4.658;2023-08-08T00:58:19;6.57;;;1.85;;
61638;SDS011;47544;52.484;4.658;2023-08-08T00:58:30;7.00;;;1.73;;
61638;SDS011;47544;52.484;4.658;2023-08-08T00:58:41;6.75;;;1.73;;
61638;SDS011;47544;52.484;4.658;2023-08-08T00:58:52;7.22;;;1.67;;
61638;SDS011;47544;52.484;4.658;2023-08-08T00:59:03;7.22;;;1.80;;
61638;SDS011;47544;52.484;4.658;2023-08-08T00:59:15;7.20;;;1.98;;
61638;SDS011;47544;52.484;4.658;2023-08-08T00:59:27;6.15;;;1.88;;
61638;SDS011;47544;52.484;4.658;2023-08-08T00:59:37;5.18;;;1.55;;
61638;SDS011;47544;52.484;4.658;2023-08-08T00:59:48;4.15;;;1.42;;
61638;SDS011;47544;52.484;4.658;2023-08-08T01:00:00;4.25;;;1.50;;
61638;SDS011;47544;52.484;4.658;2023-08-08T01:00:13;4.45;;;1.50;;
61638;SDS011;47544;52.484;4.658;2023-08-08T01:00:26;4.20;;;1.40;;
61638;SDS011;47544;52.484;4.658;2023-08-08T01:00:37;4.07;;;1.42;;
61638;SDS011;47544;52.484;4.658;2023-08-08T01:00:48;5.28;;;1.45;;
61638;SDS011;47544;52.484;4.658;2023-08-08T01:00:59;5.15;;;1.45;;
61638;SDS011;47544;52.484;4.658;2023-08-08T01:01:10;5.70;;;1.50;;
61638;SDS011;47544;52.484;4.658;2023-08-08T01:01:21;5.32;;;1.73;;
61638;SDS011;47544;52.484;4.658;2023-08-08T01:01:32;5.90;;;1.80;;
61638;SDS011;47544;52.484;4.658;2023-08-08T01:01:43;5.50;;;2.00;;
61638;SDS011;47544;52.484;4.658;2023-08-08T01:01:56;5.95;;;1.90;;
61638;SDS011;47544;52.484;4.658;2023-08-08T01:02:07;4.60;;;1.38;;
61638;SDS011;47544;52.484;4.658;2023-08-08T01:02:19;4.30;;;1.20;;
61638;SDS011;47544;52.484;4.658;2023-08-08T01:02:30;4.15;;;1.33;;
61638;SDS011;47544;52.484;4.658;2023-08-08T01:02:41;5.05;;;1.55;;
61638;SDS011;47544;52.484;4.658;2023-08-08T01:02:52;5.65;;;1.90;;
61638;SDS011;47544;52.484;4.658;2023-08-08T01:03:03;5.35;;;1.67;;
61638;SDS011;47544;52.484;4.658;2023-08-08T01:03:14;5.47;;;1.80;;
61638;SDS011;47544;52.484;4.658;2023-08-08T01:03:25;6.45;;;1.70;;
61638;SDS011;47544;52.484;4.658;2023-08-08T01:03:37;6.35;;;1.73;;
61638;SDS011;47544;52.484;4.658;2023-08-08T01:03:47;5.75;;;1.63;;
61638;SDS011;47544;52.484;4.658;2023-08-08T01:03:59;5.40;;;1.75;;
61638;SDS011;47544;52.484;4.658;2023-08-08T01:04:11;5.68;;;1.90;;
61638;SDS011;47544;52.484;4.658;2023-08-08T01:04:22;7.75;;;2.05;;
61638;SDS011;47544;52.484;4.658;2023-08-08T01:04:34;8.00;;;2.05;;
61638;SDS011;47544;52.484;4.658;2023-08-08T01:04:45;7.38;;;1.85;;
61638;SDS011;47544;52.484;4.658;2023-08-08T01:04:56;4.95;;;1.70;;
61638;SDS011;47544;52.484;4.658;2023-08-08T01:05:08;5.45;;;1.90;;
61638;SDS011;47544;52.484;4.658;2023-08-08T01:05:19;5.32;;;1.80;;
61638;SDS011;47544;52.484;4.658;2023-08-08T01:05:32;5.53;;;1.77;;
61638;SDS011;47544;52.484;4.658;2023-08-08T01:05:58;5.82;;;1.83;;
61638;SDS011;47544;52.484;4.658;2023-08-08T01:06:19;6.40;;;1.80;;
61638;SDS011;47544;52.484;4.658;2023-08-08T01:06:35;4.63;;;1.38;;
61638;SDS011;47544;52.484;4.658;2023-08-08T01:06:49;5.03;;;1.25;;
61638;SDS011;47544;52.484;4.658;2023-08-08T01:07:08;5.55;;;1.58;;
61638;SDS011;47544;52.484;4.658;2023-08-08T01:07:20;5.60;;;1.80;;
61638;SDS011;47544;52.484;4.658;2023-08-08T01:07:36;5.85;;;1.70;;
61638;SDS011;47544;52.484;4.658;2023-08-08T01:07:51;4.78;;;1.50;;
61638;SDS011;47544;52.484;4.658;2023-08-08T01:08:04;4.53;;;1.45;;
61638;SDS011;47544;52.484;4.658;2023-08-08T01:08:16;4.80;;;1.50;;
61638;SDS011;47544;52.484;4.658;2023-08-08T01:08:32;5.53;;;1.55;;
61638;SDS011;47544;52.484;4.658;2023-08-08T01:08:45;6.00;;;1.67;;
61638;SDS011;47544;52.484;4.658;2023-08-08T01:08:58;5.60;;;1.60;;
61638;SDS011;47544;52.484;4.658;2023-08-08T01:09:13;5.75;;;1.70;;
61638;SDS011;47544;52.484;4.658;2023-08-08T01:09:32;6.05;;;1.70;;